createdAt,value
2018-07-07T00:00:00.047Z,51.08
2018-07-07T00:01:10.196Z,52.04
2018-07-07T00:02:20.423Z,52.23
2018-07-07T00:03:30.671Z,52.42
2018-07-07T00:04:40.903Z,52.81
2018-07-07T00:05:51.130Z,52.81
2018-07-07T00:07:01.332Z,53
2018-07-07T00:08:11.600Z,54.05
2018-07-07T00:09:21.763Z,54.44
2018-07-07T00:10:31.901Z,54.34
2018-07-07T00:11:42.046Z,54.63
2018-07-07T00:12:52.250Z,55.11
2018-07-07T00:14:02.345Z,55.11
2018-07-07T00:15:12.494Z,55.46
2018-07-07T00:16:22.618Z,55.36
2018-07-07T00:17:32.775Z,55.36
2018-07-07T00:18:42.640Z,55.46
2018-07-07T00:19:52.832Z,55.27
2018-07-07T00:21:02.979Z,55.65
2018-07-07T00:22:13.257Z,55.56
2018-07-07T00:23:23.506Z,56.04
2018-07-07T00:24:33.688Z,56.13
2018-07-07T00:25:43.845Z,56.32
2018-07-07T00:26:54.143Z,56.42
2018-07-07T00:28:04.490Z,56.42
2018-07-07T00:29:14.628Z,56.61
2018-07-07T00:30:24.865Z,57.19
2018-07-07T00:31:35.039Z,56.99
2018-07-07T00:32:45.265Z,57.28
2018-07-07T00:33:55.496Z,57.92
2018-07-07T00:35:05.649Z,57.83
2018-07-07T00:36:15.851Z,58.31
2018-07-07T00:37:25.753Z,58.31
2018-07-07T00:38:35.899Z,58.59
2018-07-07T00:39:46.128Z,58.59
2018-07-07T00:40:56.278Z,58.88
2018-07-07T00:42:06.443Z,59.08
2018-07-07T00:43:16.601Z,59.45
2018-07-07T00:44:26.545Z,59.75
2018-07-07T00:45:36.754Z,59.84
2018-07-07T00:46:47.104Z,60.13
2018-07-07T00:47:57.450Z,60.22
2018-07-07T00:49:07.564Z,60.61
2018-07-07T00:50:17.683Z,60.8
2018-07-07T00:51:27.213Z,60.89
2018-07-07T00:52:38.493Z,60.89
2018-07-07T00:53:48.665Z,61.18
2018-07-07T00:54:58.210Z,61.66
2018-07-07T00:56:08.380Z,62.62
2018-07-07T00:57:18.512Z,62.33
2018-07-07T00:58:28.654Z,62.52
2018-07-07T00:59:38.804Z,62.62
2018-07-07T01:00:48.955Z,62.62
2018-07-07T01:01:59.088Z,62.9
2018-07-07T01:03:09.056Z,63.19
2018-07-07T01:04:19.345Z,63.83
2018-07-07T01:05:29.623Z,63.96
2018-07-07T01:06:39.834Z,64.05
2018-07-07T01:07:49.598Z,64.05
2018-07-07T01:08:59.745Z,63.96
2018-07-07T01:10:10.047Z,64.15
2018-07-07T01:11:20.165Z,64.34
2018-07-07T01:12:30.302Z,64.34
2018-07-07T01:13:40.566Z,64.5
2018-07-07T01:14:50.741Z,64.22
2018-07-07T01:16:00.936Z,64.63
2018-07-07T01:17:11.085Z,65.11
2018-07-07T01:18:21.228Z,65.97
2018-07-07T01:19:31.368Z,65.97
2018-07-07T01:20:41.503Z,66.06
2018-07-07T01:21:51.690Z,66.32
2018-07-07T01:23:01.865Z,66.03
2018-07-07T01:24:12.018Z,66.22
2018-07-07T01:25:22.293Z,66.99
2018-07-07T01:26:32.425Z,67.08
2018-07-07T01:27:42.768Z,66.99
2018-07-07T01:28:53.037Z,66.99
2018-07-07T01:30:03.278Z,66.99
2018-07-07T01:31:13.464Z,66.7
2018-07-07T01:32:23.606Z,67.56
2018-07-07T01:33:33.823Z,68.04
2018-07-07T01:34:43.452Z,67.94
2018-07-07T01:35:53.730Z,67.94
2018-07-07T01:37:03.917Z,67.85
2018-07-07T01:38:13.804Z,68.52
2018-07-07T01:39:23.974Z,68.13
2018-07-07T01:40:34.175Z,68.04
2018-07-07T01:41:44.344Z,68.33
2018-07-07T01:42:54.567Z,68.04
2018-07-07T01:44:04.470Z,68.42
2018-07-07T01:45:14.376Z,68.23
2018-07-07T01:46:24.482Z,67.94
2018-07-07T01:47:34.630Z,68.52
2018-07-07T01:48:44.891Z,68.62
2018-07-07T01:49:55.204Z,68.68
2018-07-07T01:51:05.333Z,68.62
2018-07-07T01:52:15.527Z,68.8
2018-07-07T01:53:25.703Z,68.62
2018-07-07T01:54:35.888Z,68.8
2018-07-07T01:55:46.022Z,68.8
2018-07-07T01:56:56.558Z,68.71
2018-07-07T01:58:06.319Z,68.71
2018-07-07T01:59:16.438Z,68.58
2018-07-07T02:00:26.586Z,68.52
2018-07-07T02:01:36.788Z,68.62
2018-07-07T02:02:46.988Z,68.33
2018-07-07T02:03:57.151Z,68.52
2018-07-07T02:05:07.307Z,68.1
2018-07-07T02:06:17.520Z,68.04
2018-07-07T02:07:27.650Z,68.04
2018-07-07T02:08:37.761Z,68.13
2018-07-07T02:09:47.939Z,67.94
2018-07-07T02:10:58.146Z,67.85
2018-07-07T02:12:08.305Z,68.13
2018-07-07T02:13:17.915Z,68.04
2018-07-07T02:14:28.442Z,68.04
2018-07-07T02:15:38.350Z,67.94
2018-07-07T02:16:48.136Z,68.23
2018-07-07T02:17:59.304Z,68.13
2018-07-07T02:19:09.300Z,68.33
2018-07-07T02:20:19.437Z,68.13
2018-07-07T02:21:29.583Z,68.13
2018-07-07T02:22:39.701Z,68.33
2018-07-07T02:23:49.928Z,67.76
2018-07-07T02:25:00.096Z,67.94
2018-07-07T02:26:10.272Z,68.23
2018-07-07T02:27:20.587Z,67.94
2018-07-07T02:28:30.372Z,67.94
2018-07-07T02:29:40.554Z,68.52
2018-07-07T02:30:50.513Z,68.04
2018-07-07T02:32:00.624Z,68.13
2018-07-07T02:33:10.759Z,68.23
2018-07-07T02:34:20.929Z,68.62
2018-07-07T02:35:31.060Z,68.23
2018-07-07T02:36:41.244Z,68.23
2018-07-07T02:37:51.164Z,68.42
2018-07-07T02:39:01.956Z,68.62
2018-07-07T02:40:12.116Z,68.62
2018-07-07T02:41:21.461Z,68.52
2018-07-07T02:42:31.234Z,68.49
2018-07-07T02:43:41.407Z,68.77
2018-07-07T02:44:51.631Z,68.42
2018-07-07T02:46:01.869Z,68.8
2018-07-07T02:47:11.776Z,68.8
2018-07-07T02:48:21.898Z,68.77
2018-07-07T02:49:32.010Z,68.62
2018-07-07T02:50:42.213Z,68.9
2018-07-07T02:51:52.409Z,68.71
2018-07-07T02:53:02.606Z,69.09
2018-07-07T02:54:12.101Z,69.38
2018-07-07T02:55:21.963Z,69.67
2018-07-07T02:56:32.103Z,69.19
2018-07-07T02:57:42.221Z,69.38
2018-07-07T02:58:52.399Z,69.48
2018-07-07T03:00:02.583Z,69.73
2018-07-07T03:01:12.494Z,69.64
2018-07-07T03:02:22.618Z,69.86
2018-07-07T03:03:32.735Z,70.11
2018-07-07T03:04:42.860Z,70.4
2018-07-07T03:05:53.066Z,70.3
2018-07-07T03:07:03.268Z,69.92
2018-07-07T03:08:13.393Z,70.21
2018-07-07T03:09:23.543Z,70.4
2018-07-07T03:10:33.665Z,70.21
2018-07-07T03:11:43.795Z,70.4
2018-07-07T03:12:53.937Z,69.82
2018-07-07T03:14:04.101Z,70.5
2018-07-07T03:15:13.995Z,70.97
2018-07-07T03:16:23.864Z,70.4
2018-07-07T03:17:34.005Z,70.87
2018-07-07T03:18:44.436Z,70.78
2018-07-07T03:19:54.807Z,70.87
2018-07-07T03:21:05.011Z,70.78
2018-07-07T03:22:15.207Z,71.36
2018-07-07T03:23:25.360Z,71.16
2018-07-07T03:24:35.495Z,71.26
2018-07-07T03:25:45.624Z,71.36
2018-07-07T03:26:55.758Z,71.07
2018-07-07T03:28:05.903Z,71.07
2018-07-07T03:29:16.064Z,71.07
2018-07-07T03:30:26.249Z,71.3
2018-07-07T03:31:35.865Z,71.16
2018-07-07T03:32:46.017Z,71.07
2018-07-07T03:33:57.113Z,71.16
2018-07-07T03:35:07.250Z,71.07
2018-07-07T03:36:17.427Z,71.26
2018-07-07T03:37:27.630Z,71.26
2018-07-07T03:38:38.138Z,71.16
2018-07-07T03:39:48.257Z,71.16
2018-07-07T03:40:58.363Z,71.07
2018-07-07T03:42:08.566Z,71.07
2018-07-07T03:43:18.950Z,71.07
2018-07-07T03:44:29.080Z,71.16
2018-07-07T03:45:39.236Z,70.87
2018-07-07T03:46:49.415Z,71.07
2018-07-07T03:47:59.642Z,71.83
2018-07-07T03:49:09.973Z,71.93
2018-07-07T03:50:20.259Z,71.83
2018-07-07T03:51:30.127Z,71.83
2018-07-07T03:52:40.469Z,71.93
2018-07-07T03:53:50.673Z,71.39
2018-07-07T03:55:00.835Z,71.77
2018-07-07T03:56:11.189Z,72.25
2018-07-07T03:57:21.397Z,72.16
2018-07-07T03:58:31.744Z,72.02
2018-07-07T03:59:41.621Z,72.63
2018-07-07T04:00:51.994Z,72.34
2018-07-07T04:02:02.316Z,72.73
2018-07-07T04:03:12.469Z,72.83
2018-07-07T04:04:22.700Z,72.92
2018-07-07T04:05:32.832Z,73.21
2018-07-07T04:06:43.107Z,72.98
2018-07-07T04:07:53.338Z,73.21
2018-07-07T04:09:03.511Z,72.54
2018-07-07T04:10:13.634Z,72.54
2018-07-07T04:11:23.792Z,72.44
2018-07-07T04:12:34.046Z,73.02
2018-07-07T04:13:43.808Z,73.11
2018-07-07T04:14:53.961Z,73.02
2018-07-07T04:16:04.078Z,73.11
2018-07-07T04:17:14.205Z,73.21
2018-07-07T04:18:24.394Z,72.63
2018-07-07T04:19:34.253Z,72.73
2018-07-07T04:20:44.374Z,72.44
2018-07-07T04:21:54.521Z,73.02
2018-07-07T04:23:04.517Z,73.05
2018-07-07T04:24:14.678Z,73.05
2018-07-07T04:25:24.568Z,73.05
2018-07-07T04:26:34.685Z,73.15
2018-07-07T04:27:45.071Z,73.44
2018-07-07T04:28:55.226Z,73.63
2018-07-07T04:30:04.995Z,73.59
2018-07-07T04:31:14.871Z,73.44
2018-07-07T04:32:24.817Z,73.63
2018-07-07T04:33:34.855Z,73.72
2018-07-07T04:34:45.165Z,73.91
2018-07-07T04:35:55.330Z,73.63
2018-07-07T04:37:05.194Z,73.72
2018-07-07T04:38:15.379Z,73.63
2018-07-07T04:39:25.512Z,74.11
2018-07-07T04:40:36.007Z,74.11
2018-07-07T04:41:46.129Z,74.01
2018-07-07T04:42:56.266Z,74.11
2018-07-07T04:44:06.401Z,74.2
2018-07-07T04:45:16.547Z,73.91
2018-07-07T04:46:26.417Z,73.72
2018-07-07T04:47:36.336Z,73.91
2018-07-07T04:48:46.501Z,73.72
2018-07-07T04:49:56.666Z,74.05
2018-07-07T04:51:06.509Z,74.05
2018-07-07T04:52:16.656Z,73.76
2018-07-07T04:53:27.110Z,73.47
2018-07-07T04:54:37.020Z,73.57
2018-07-07T04:55:46.806Z,73.47
2018-07-07T04:56:56.943Z,73.66
2018-07-07T04:58:07.086Z,73.28
2018-07-07T04:59:17.326Z,73.57
2018-07-07T05:00:27.347Z,73.57
2018-07-07T05:01:37.474Z,73.57
2018-07-07T05:02:47.490Z,73.57
2018-07-07T05:03:58.608Z,73.47
2018-07-07T05:05:08.865Z,73.28
2018-07-07T05:06:19.038Z,73.76
2018-07-07T05:07:29.261Z,73.66
2018-07-07T05:08:39.613Z,73.47
2018-07-07T05:09:49.744Z,73.32
2018-07-07T05:10:59.654Z,72.74
2018-07-07T05:12:10.023Z,72.94
2018-07-07T05:13:20.196Z,72.55
2018-07-07T05:14:30.335Z,72.55
2018-07-07T05:15:40.508Z,73.03
2018-07-07T05:16:50.677Z,72.45
2018-07-07T05:18:00.869Z,72.97
2018-07-07T05:19:11.321Z,72.3
2018-07-07T05:20:21.464Z,72.2
2018-07-07T05:21:31.599Z,71.92
2018-07-07T05:22:41.725Z,71.82
2018-07-07T05:23:51.872Z,71.44
2018-07-07T05:25:02.009Z,71.15
2018-07-07T05:26:11.880Z,71.47
2018-07-07T05:27:22.011Z,71.28
2018-07-07T05:28:32.176Z,70.51
2018-07-07T05:29:42.351Z,70.99
2018-07-07T05:30:52.489Z,70.8
2018-07-07T05:32:02.654Z,70.99
2018-07-07T05:33:13.011Z,70.7
2018-07-07T05:34:23.165Z,70.57
2018-07-07T05:35:33.311Z,70.67
2018-07-07T05:36:43.289Z,70.61
2018-07-07T05:37:53.468Z,71.15
2018-07-07T05:39:03.610Z,71.15
2018-07-07T05:40:13.740Z,70.96
2018-07-07T05:41:23.889Z,70.96
2018-07-07T05:42:33.681Z,70.96
2018-07-07T05:43:43.569Z,70.76
2018-07-07T05:44:53.697Z,70.57
2018-07-07T05:46:03.826Z,70.86
2018-07-07T05:47:13.959Z,70.7
2018-07-07T05:48:24.118Z,70.29
2018-07-07T05:49:34.229Z,70.29
2018-07-07T05:50:44.359Z,70.38
2018-07-07T05:51:54.485Z,70.29
2018-07-07T05:53:04.361Z,70.32
2018-07-07T05:54:14.485Z,70.51
2018-07-07T05:55:24.354Z,70.7
2018-07-07T05:56:34.117Z,70.42
2018-07-07T05:57:44.284Z,70.7
2018-07-07T05:58:54.413Z,70.42
2018-07-07T06:00:04.533Z,70.51
2018-07-07T06:01:14.728Z,70.51
2018-07-07T06:02:24.877Z,70.99
2018-07-07T06:03:35.237Z,70.42
2018-07-07T06:04:45.398Z,70.61
2018-07-07T06:05:55.539Z,70.9
2018-07-07T06:07:05.693Z,70.7
2018-07-07T06:08:15.995Z,70.8
2018-07-07T06:09:26.135Z,70.86
2018-07-07T06:10:36.283Z,70.99
2018-07-07T06:11:46.481Z,70.61
2018-07-07T06:12:56.659Z,70.96
2018-07-07T06:14:06.805Z,70.9
2018-07-07T06:15:16.933Z,70.7
2018-07-07T06:16:27.137Z,70.23
2018-07-07T06:17:37.301Z,70.32
2018-07-07T06:18:47.522Z,70.23
2018-07-07T06:19:57.542Z,70.32
2018-07-07T06:21:07.676Z,70.23
2018-07-07T06:22:17.910Z,69.74
2018-07-07T06:23:28.062Z,70.32
2018-07-07T06:24:38.202Z,70.03
2018-07-07T06:25:48.072Z,69.93
2018-07-07T06:26:58.278Z,69.74
2018-07-07T06:28:08.458Z,69.97
2018-07-07T06:29:18.659Z,69.74
2018-07-07T06:30:28.458Z,69.65
2018-07-07T06:31:38.607Z,69.74
2018-07-07T06:32:48.544Z,69.36
2018-07-07T06:33:58.662Z,69.59
2018-07-07T06:35:08.796Z,69.59
2018-07-07T06:36:18.988Z,68.82
2018-07-07T06:37:29.306Z,68.82
2018-07-07T06:38:39.202Z,68.53
2018-07-07T06:39:49.326Z,68.24
2018-07-07T06:40:59.250Z,68.24
2018-07-07T06:42:09.529Z,68.34
2018-07-07T06:43:19.683Z,68.34
2018-07-07T06:44:29.866Z,68.15
2018-07-07T06:45:39.831Z,68.34
2018-07-07T06:46:50.020Z,68.63
2018-07-07T06:47:59.957Z,68.24
2018-07-07T06:49:09.905Z,68.53
2018-07-07T06:50:20.077Z,68.24
2018-07-07T06:51:30.194Z,68.05
2018-07-07T06:52:40.555Z,68.34
2018-07-07T06:53:50.436Z,68.15
2018-07-07T06:55:01.253Z,68.05
2018-07-07T06:56:11.386Z,67.76
2018-07-07T06:57:21.534Z,67.57
2018-07-07T06:58:31.728Z,66.61
2018-07-07T06:59:42.191Z,66.61
2018-07-07T07:00:52.624Z,66.13
2018-07-07T07:02:02.823Z,66.13
2018-07-07T07:03:12.991Z,66.64
2018-07-07T07:04:22.943Z,66.71
2018-07-07T07:05:34.112Z,66.26
2018-07-07T07:06:45.213Z,66.16
2018-07-07T07:07:55.431Z,66.07
2018-07-07T07:09:05.347Z,66.16
2018-07-07T07:10:16.478Z,65.69
2018-07-07T07:11:26.644Z,65.69
2018-07-07T07:12:36.519Z,65.78
2018-07-07T07:13:46.669Z,65.11
2018-07-07T07:14:56.539Z,65.3
2018-07-07T07:16:06.672Z,65.69
2018-07-07T07:17:16.912Z,65.49
2018-07-07T07:18:27.031Z,65.3
2018-07-07T07:19:36.985Z,65.2
2018-07-07T07:20:47.110Z,65.11
2018-07-07T07:21:57.084Z,64.92
2018-07-07T07:23:07.349Z,65.01
2018-07-07T07:24:17.557Z,65.01
2018-07-07T07:25:27.805Z,64.72
2018-07-07T07:26:37.970Z,64.63
2018-07-07T07:27:48.133Z,64.25
2018-07-07T07:28:58.309Z,64.72
2018-07-07T07:30:08.203Z,64.34
2018-07-07T07:31:19.062Z,64.15
2018-07-07T07:32:29.219Z,64.43
2018-07-07T07:33:39.136Z,64.18
2018-07-07T07:34:49.273Z,62.74
2018-07-07T07:35:59.216Z,62.55
2018-07-07T07:37:09.475Z,63.02
2018-07-07T07:38:19.752Z,63.12
2018-07-07T07:39:30.013Z,62.07
2018-07-07T07:40:40.150Z,61.91
2018-07-07T07:41:50.531Z,61.71
2018-07-07T07:43:00.775Z,61.43
2018-07-07T07:44:11.002Z,62.19
2018-07-07T07:45:21.140Z,61.91
2018-07-07T07:46:31.017Z,62.58
2018-07-07T07:47:41.188Z,62.1
2018-07-07T07:48:51.125Z,61.81
2018-07-07T07:50:01.419Z,60.27
2018-07-07T07:51:11.677Z,59.41
2018-07-07T07:52:21.817Z,59.5
2018-07-07T07:53:31.951Z,59.12
2018-07-07T07:54:42.089Z,59.19
2018-07-07T07:55:52.262Z,59.89
2018-07-07T07:57:02.168Z,59.6
2018-07-07T07:58:12.319Z,59.69
2018-07-07T07:59:22.466Z,60.08
2018-07-07T08:00:32.620Z,60.37
2018-07-07T08:01:42.755Z,60.56
2018-07-07T08:02:52.939Z,60.66
2018-07-07T08:04:02.679Z,60.56
2018-07-07T08:05:12.888Z,60.66
2018-07-07T08:06:23.120Z,60.49
2018-07-07T08:07:33.380Z,60.59
2018-07-07T08:08:43.308Z,60.59
2018-07-07T08:09:53.423Z,60.3
2018-07-07T08:11:03.553Z,60.3
2018-07-07T08:12:13.740Z,60.11
2018-07-07T08:13:23.937Z,60.21
2018-07-07T08:14:33.708Z,60.01
2018-07-07T08:15:43.935Z,59.92
2018-07-07T08:16:53.868Z,59.72
2018-07-07T08:18:04.036Z,60.01
2018-07-07T08:19:14.161Z,59.92
2018-07-07T08:20:24.340Z,60.39
2018-07-07T08:21:34.496Z,60.3
2018-07-07T08:22:44.753Z,60.3
2018-07-07T08:23:55.074Z,60.39
2018-07-07T08:25:04.985Z,59.94
2018-07-07T08:26:15.166Z,60.14
2018-07-07T08:27:25.086Z,59.75
2018-07-07T08:28:35.373Z,59.85
2018-07-07T08:29:45.540Z,59.75
2018-07-07T08:30:55.841Z,59.11
2018-07-07T08:32:06.011Z,59.2
2018-07-07T08:33:15.930Z,58.44
2018-07-07T08:34:26.195Z,58.44
2018-07-07T08:35:36.770Z,58.63
2018-07-07T08:36:47.065Z,58.37
2018-07-07T08:37:58.224Z,57.89
2018-07-07T08:39:08.468Z,57.5
2018-07-07T08:40:18.626Z,56.73
2018-07-07T08:41:28.900Z,56.25
2018-07-07T08:42:38.772Z,55.99
2018-07-07T08:43:48.563Z,55.31
2018-07-07T08:44:58.715Z,55.6
2018-07-07T08:46:08.606Z,55.51
2018-07-07T08:47:18.800Z,55.41
2018-07-07T08:48:28.942Z,55.05
2018-07-07T08:49:39.091Z,54.47
2018-07-07T08:50:49.478Z,54.31
2018-07-07T08:51:59.643Z,54.31
2018-07-07T08:53:09.795Z,53.34
2018-07-07T08:54:20.921Z,52.86
2018-07-07T08:55:31.055Z,52.5
2018-07-07T08:56:41.225Z,53.17
2018-07-07T08:57:51.445Z,52.69
2018-07-07T08:59:01.636Z,51.75
2018-07-07T09:00:11.905Z,51.29
2018-07-07T09:01:22.109Z,49.77
2018-07-07T09:02:32.271Z,49.41
2018-07-07T09:03:42.424Z,48.3
2018-07-07T09:04:52.619Z,46.89
2018-07-07T09:06:02.822Z,42.65
2018-07-07T09:07:12.996Z,42.86
2018-07-07T09:08:23.134Z,42.3
2018-07-07T09:09:33.359Z,41.74
2018-07-07T09:10:43.558Z,41.26
2018-07-07T09:11:53.757Z,42.44
2018-07-07T09:13:03.935Z,42.44
2018-07-07T09:14:14.193Z,39.84
2018-07-07T09:15:24.579Z,40.23
2018-07-07T09:16:34.731Z,39.94
2018-07-07T09:17:45.870Z,40.03
2018-07-07T09:18:55.977Z,41.03
2018-07-07T09:20:05.872Z,40.73
2018-07-07T09:21:16.123Z,40.27
2018-07-07T09:22:26.610Z,39.88
2018-07-07T09:23:36.909Z,37.37
2018-07-07T09:24:47.084Z,37.46
2018-07-07T09:25:57.327Z,36.69
2018-07-07T09:27:07.237Z,36.88
2018-07-07T09:28:17.409Z,37.37
2018-07-07T09:29:27.557Z,38.32
2018-07-07T09:30:37.723Z,38.44
2018-07-07T09:31:47.899Z,38.73
2018-07-07T09:32:58.108Z,36.88
2018-07-07T09:34:08.010Z,37.37
2018-07-07T09:35:17.905Z,37.48
2018-07-07T09:36:28.068Z,37.58
2018-07-07T09:37:38.229Z,37.31
2018-07-07T09:38:48.581Z,36.72
2018-07-07T09:39:59.002Z,35.28
2018-07-07T09:41:09.224Z,36.74
2018-07-07T09:42:19.455Z,36.45
2018-07-07T09:43:29.678Z,34.61
2018-07-07T09:44:39.834Z,34.11
2018-07-07T09:45:49.988Z,34.89
2018-07-07T09:47:00.210Z,35.85
2018-07-07T09:48:10.129Z,35.77
2018-07-07T09:49:20.522Z,35.18
2018-07-07T09:50:30.701Z,34.89
2018-07-07T09:51:40.804Z,34.79
2018-07-07T09:52:50.961Z,33.53
2018-07-07T09:54:01.130Z,34.39
2018-07-07T09:55:11.362Z,35.06
2018-07-07T09:56:21.869Z,35.26
2018-07-07T09:57:32.278Z,35.26
2018-07-07T09:58:42.506Z,35.06
2018-07-07T09:59:52.689Z,35.38
2018-07-07T10:01:06.067Z,34.03
2018-07-07T10:02:17.228Z,33.34
2018-07-07T10:03:27.388Z,33.06
2018-07-07T10:04:37.565Z,33.25
2018-07-07T10:05:47.769Z,32.57
2018-07-07T10:06:58.011Z,33.33
2018-07-07T10:08:08.444Z,33.61
2018-07-07T10:09:18.590Z,33.02
2018-07-07T10:10:28.796Z,33.12
2018-07-07T10:11:38.677Z,33.51
2018-07-07T10:12:48.816Z,33.61
2018-07-07T10:13:58.965Z,33.9
2018-07-07T10:15:09.130Z,33.7
2018-07-07T10:16:19.300Z,33.8
2018-07-07T10:17:29.553Z,33.23
2018-07-07T10:18:39.729Z,32.65
2018-07-07T10:19:49.907Z,33.33
2018-07-07T10:21:01.116Z,33.14
2018-07-07T10:22:10.905Z,32.45
2018-07-07T10:23:21.111Z,32.75
2018-07-07T10:24:31.336Z,32.84
2018-07-07T10:25:41.543Z,32.26
2018-07-07T10:26:51.826Z,32.26
2018-07-07T10:28:01.742Z,32.65
2018-07-07T10:29:11.903Z,31.4
2018-07-07T10:30:22.060Z,31.3
2018-07-07T10:31:32.187Z,31.59
2018-07-07T10:32:42.548Z,31.2
2018-07-07T10:33:52.897Z,31.01
2018-07-07T10:35:02.792Z,30.81
2018-07-07T10:36:12.711Z,30.91
2018-07-07T10:37:22.916Z,30.62
2018-07-07T10:38:33.296Z,30.63
2018-07-07T10:39:43.709Z,30.73
2018-07-07T10:40:53.876Z,30.44
2018-07-07T10:42:04.210Z,29.66
2018-07-07T10:43:14.597Z,29.67
2018-07-07T10:44:25.483Z,30.15
2018-07-07T10:45:35.602Z,29.85
2018-07-07T10:46:46.336Z,29.56
2018-07-07T10:47:56.558Z,29.56
2018-07-07T10:49:06.709Z,29.85
2018-07-07T10:50:16.954Z,29.56
2018-07-07T10:51:27.107Z,29.07
2018-07-07T10:52:37.701Z,28.68
2018-07-07T10:53:47.894Z,28.78
2018-07-07T10:54:58.048Z,28.68
2018-07-07T10:56:08.267Z,28.79
2018-07-07T10:57:18.462Z,28.5
2018-07-07T10:58:28.870Z,28.69
2018-07-07T10:59:39.040Z,28.39
2018-07-07T11:00:50.187Z,28.97
2018-07-07T11:02:00.380Z,29.17
2018-07-07T11:03:10.592Z,29.06
2018-07-07T11:04:21.084Z,28.96
2018-07-07T11:05:31.542Z,28.86
2018-07-07T11:06:41.741Z,29.35
2018-07-07T11:07:51.988Z,29.35
2018-07-07T11:09:02.294Z,29.25
2018-07-07T11:10:12.465Z,29.54
2018-07-07T11:11:23.628Z,29.83
2018-07-07T11:12:33.873Z,28.96
2018-07-07T11:13:43.837Z,28.96
2018-07-07T11:14:54.015Z,28.77
2018-07-07T11:16:04.187Z,28.47
2018-07-07T11:17:14.691Z,28.65
2018-07-07T11:18:24.891Z,28.55
2018-07-07T11:19:35.061Z,29.33
2018-07-07T11:20:45.249Z,28.65
2018-07-07T11:21:55.191Z,27.97
2018-07-07T11:23:05.396Z,27.78
2018-07-07T11:24:15.609Z,27.68
2018-07-07T11:25:25.973Z,28.26
2018-07-07T11:26:36.141Z,27.68
2018-07-07T11:27:46.291Z,26.02
2018-07-07T11:28:56.458Z,26.21
2018-07-07T11:30:06.704Z,25.04
2018-07-07T11:31:17.017Z,25.73
2018-07-07T11:32:27.173Z,26.12
2018-07-07T11:33:37.063Z,26.41
2018-07-07T11:34:47.250Z,26.9
2018-07-07T11:35:57.427Z,27.09
2018-07-07T11:37:07.344Z,27.2
2018-07-07T11:38:17.492Z,27.11
2018-07-07T11:39:27.293Z,27.09
2018-07-07T11:40:37.466Z,27.87
2018-07-07T11:41:47.371Z,27.78
2018-07-07T11:42:57.350Z,28.16
2018-07-07T11:44:07.522Z,28.26
2018-07-07T11:45:17.904Z,28.38
2018-07-07T11:46:28.063Z,28.67
2018-07-07T11:47:38.183Z,27.89
2018-07-07T11:48:48.342Z,27.59
2018-07-07T11:49:58.761Z,28.18
2018-07-07T11:51:09.076Z,28.38
2018-07-07T11:52:19.274Z,28.28
2018-07-07T11:53:30.531Z,28.28
2018-07-07T11:54:40.861Z,27.31
2018-07-07T11:55:51.016Z,26.43
2018-07-07T11:57:01.180Z,26.92
2018-07-07T11:58:11.151Z,26.82
2018-07-07T11:59:21.381Z,26.53
2018-07-07T12:00:31.544Z,26.35
2018-07-07T12:01:41.776Z,26.45
2018-07-07T12:02:52.009Z,26.37
2018-07-07T12:04:02.199Z,26.54
2018-07-07T12:05:12.433Z,26.64
2018-07-07T12:06:22.609Z,26.35
2018-07-07T12:07:33.024Z,26.35
2018-07-07T12:08:43.217Z,25.96
2018-07-07T12:09:53.417Z,25.18
2018-07-07T12:11:03.599Z,25.86
2018-07-07T12:12:14.795Z,26.04
2018-07-07T12:13:25.148Z,25.36
2018-07-07T12:14:35.363Z,25.36
2018-07-07T12:15:45.523Z,24.88
2018-07-07T12:16:55.735Z,25.07
2018-07-07T12:18:05.925Z,25.07
2018-07-07T12:19:16.143Z,25.45
2018-07-07T12:20:26.329Z,25.84
2018-07-07T12:21:36.533Z,26.03
2018-07-07T12:22:46.686Z,26.42
2018-07-07T12:23:56.934Z,26.72
2018-07-07T12:25:07.179Z,26.62
2018-07-07T12:26:17.360Z,26.81
2018-07-07T12:27:27.663Z,26.62
2018-07-07T12:28:38.424Z,26.62
2018-07-07T12:29:48.592Z,26.32
2018-07-07T12:30:58.763Z,26.62
2018-07-07T12:32:08.931Z,26.9
2018-07-07T12:33:19.182Z,27.68
2018-07-07T12:34:28.739Z,27.47
2018-07-07T12:35:38.964Z,28.25
2018-07-07T12:36:49.311Z,28.14
2018-07-07T12:37:59.521Z,27.75
2018-07-07T12:39:09.801Z,27.75
2018-07-07T12:40:21.036Z,26.58
2018-07-07T12:41:31.353Z,26.39
2018-07-07T12:42:41.258Z,26.95
2018-07-07T12:43:51.194Z,27.83
2018-07-07T12:45:01.357Z,28.13
2018-07-07T12:46:11.503Z,28.32
2018-07-07T12:47:21.736Z,28.42
2018-07-07T12:48:32.020Z,28.8
2018-07-07T12:49:43.230Z,28.8
2018-07-07T12:50:53.461Z,28.32
2018-07-07T12:52:03.846Z,27.93
2018-07-07T12:53:14.218Z,28.51
2018-07-07T12:54:24.108Z,29.1
2018-07-07T12:55:34.309Z,28.99
2018-07-07T12:56:44.536Z,29.38
2018-07-07T12:57:54.323Z,29.86
2018-07-07T12:59:04.530Z,29.66
2018-07-07T13:00:14.712Z,29.38
2018-07-07T13:01:25.101Z,29.47
2018-07-07T13:02:35.287Z,29.28
2018-07-07T13:03:45.515Z,28.89
2018-07-07T13:04:55.740Z,28.39
2018-07-07T13:06:05.998Z,28.68
2018-07-07T13:07:16.145Z,28.88
2018-07-07T13:08:26.377Z,29.16
2018-07-07T13:09:36.618Z,29.16
2018-07-07T13:10:46.827Z,29.28
2018-07-07T13:11:56.976Z,29.28
2018-07-07T13:13:07.231Z,29.18
2018-07-07T13:14:17.463Z,28.2
2018-07-07T13:15:27.770Z,28.5
2018-07-07T13:16:37.950Z,28.29
2018-07-07T13:17:49.111Z,28.29
2018-07-07T13:18:59.527Z,29.06
2018-07-07T13:20:09.717Z,29.46
2018-07-07T13:21:19.878Z,29.36
2018-07-07T13:22:30.063Z,29.65
2018-07-07T13:23:40.234Z,29.55
2018-07-07T13:24:50.839Z,29.36
2018-07-07T13:26:01.053Z,29.65
2018-07-07T13:27:11.240Z,29.26
2018-07-07T13:28:21.057Z,29.55
2018-07-07T13:29:31.434Z,29.55
2018-07-07T13:30:41.622Z,28.97
2018-07-07T13:31:51.821Z,28.86
2018-07-07T13:33:01.794Z,28.96
2018-07-07T13:34:12.230Z,29.25
2018-07-07T13:35:22.493Z,30.12
2018-07-07T13:36:32.696Z,30.12
2018-07-07T13:37:42.893Z,30.22
2018-07-07T13:38:53.271Z,30.22
2018-07-07T13:40:03.454Z,30.12
2018-07-07T13:41:13.669Z,29.33
2018-07-07T13:42:24.810Z,29.82
2018-07-07T13:43:35.026Z,30.01
2018-07-07T13:44:45.208Z,30.11
2018-07-07T13:45:55.486Z,30.4
2018-07-07T13:47:05.673Z,29.72
2018-07-07T13:48:15.870Z,29.33
2018-07-07T13:49:26.299Z,29.33
2018-07-07T13:50:36.522Z,29.62
2018-07-07T13:51:46.838Z,29.91
2018-07-07T13:52:57.188Z,28.85
2018-07-07T13:54:07.578Z,28.85
2018-07-07T13:55:17.887Z,29.14
2018-07-07T13:56:28.089Z,29.62
2018-07-07T13:57:38.283Z,30.3
2018-07-07T13:58:48.073Z,30.79
2018-07-07T13:59:58.236Z,30.98
2018-07-07T14:01:08.411Z,30.5
2018-07-07T14:02:18.650Z,30.12
2018-07-07T14:03:30.096Z,30.4
2018-07-07T14:04:40.387Z,30.88
2018-07-07T14:05:50.671Z,30.88
2018-07-07T14:07:00.859Z,31.08
2018-07-07T14:08:11.013Z,30.69
2018-07-07T14:09:21.443Z,30.59
2018-07-07T14:10:31.688Z,30.88
2018-07-07T14:11:41.869Z,30.87
2018-07-07T14:12:52.027Z,30.98
2018-07-07T14:14:02.515Z,30.79
2018-07-07T14:15:12.744Z,30.21
2018-07-07T14:16:23.074Z,30.3
2018-07-07T14:17:33.528Z,30.59
2018-07-07T14:18:43.879Z,30.79
2018-07-07T14:19:54.070Z,30.69
2018-07-07T14:21:04.244Z,30.4
2018-07-07T14:22:14.449Z,30.59
2018-07-07T14:23:24.266Z,30.88
2018-07-07T14:24:34.642Z,31.08
2018-07-07T14:25:44.871Z,30.5
2018-07-07T14:26:55.037Z,30.3
2018-07-07T14:28:05.373Z,30.59
2018-07-07T14:29:15.543Z,30.69
2018-07-07T14:30:25.870Z,31.08
2018-07-07T14:31:36.044Z,30.98
2018-07-07T14:32:46.326Z,31.08
2018-07-07T14:33:56.493Z,30.79
2018-07-07T14:35:06.772Z,30.98
2018-07-07T14:36:16.937Z,31.27
2018-07-07T14:37:27.121Z,31.37
2018-07-07T14:38:36.770Z,31.66
2018-07-07T14:39:47.175Z,31.57
2018-07-07T14:40:57.350Z,31.66
2018-07-07T14:42:07.595Z,31.65
2018-07-07T14:43:17.777Z,31.27
2018-07-07T14:44:27.921Z,31.07
2018-07-07T14:45:38.109Z,30.87
2018-07-07T14:46:48.398Z,31.35
2018-07-07T14:47:58.646Z,31.45
2018-07-07T14:49:08.798Z,31.55
2018-07-07T14:50:19.051Z,31.65
2018-07-07T14:51:29.299Z,31.55
2018-07-07T14:52:39.202Z,31.55
2018-07-07T14:53:49.348Z,31.74
2018-07-07T14:54:59.527Z,31.74
2018-07-07T14:56:09.736Z,31.94
2018-07-07T14:57:19.981Z,32.13
2018-07-07T14:58:30.367Z,32.13
2018-07-07T14:59:40.547Z,31.94
2018-07-07T15:00:51.035Z,31.74
2018-07-07T15:02:00.856Z,32.04
2018-07-07T15:03:11.004Z,32.13
2018-07-07T15:04:21.257Z,32.13
2018-07-07T15:05:32.597Z,32.13
2018-07-07T15:06:43.004Z,32.23